Time;durP1;ratioP1;P1;durP2;ratioP2;P2;SDS_P1;SDS_P2;PMS_P1;PMS_P2;Temp;Humidity;BMP_temperature;BMP_pressure;BME280_temperature;BME280_humidity;BME280_pressure;Samples;Min_cycle;Max_cycle;Signal;HPM_P1;HPM_P2
2021/11/11 00:01:20;;;;;;;11.80;8.00;;;;;;;2.36;83.44;101675.69;5001770;28;20254;-73
2021/11/11 00:03:47;;;;;;;11.63;8.10;;;;;;;2.35;82.60;101676.56;5003317;28;20229;-73
2021/11/11 00:06:13;;;;;;;14.10;8.83;;;;;;;2.32;83.00;101671.38;5003840;28;20207;-73
2021/11/11 00:08:41;;;;;;;16.13;8.60;;;;;;;2.29;83.51;101676.66;5004675;28;20218;-72
2021/11/11 00:11:07;;;;;;;11.07;7.53;;;;;;;2.26;82.90;101671.44;5005812;28;20234;-74
2021/11/11 00:13:35;;;;;;;10.53;7.30;;;;;;;2.23;82.78;101666.22;5003663;28;20219;-73
2021/11/11 00:16:02;;;;;;;9.67;6.80;;;;;;;2.20;83.20;101684.66;5005017;28;20222;-72
2021/11/11 00:18:29;;;;;;;8.90;6.83;;;;;;;2.18;82.86;101683.78;5005305;28;20211;-72
2021/11/11 00:20:55;;;;;;;11.10;6.97;;;;;;;2.15;83.16;101684.69;5002564;28;20215;-74
2021/11/11 00:23:22;;;;;;;10.20;7.07;;;;;;;2.12;82.97;101687.41;5003087;28;20219;-72
2021/11/11 00:25:49;;;;;;;10.80;7.53;;;;;;;2.11;83.55;101682.16;5006923;28;20755;-70
2021/11/11 00:28:15;;;;;;;12.93;6.73;;;;;;;2.08;83.23;101669.91;5001315;28;20202;-72
2021/11/11 00:30:43;;;;;;;9.23;6.47;;;;;;;2.05;83.16;101659.44;5001213;28;20231;-73
2021/11/11 00:33:10;;;;;;;12.17;6.57;;;;;;;2.02;83.80;101647.19;5007291;28;20233;-72
2021/11/11 00:35:37;;;;;;;9.30;6.40;;;;;;;1.99;83.26;101644.59;5006216;28;20203;-73
2021/11/11 00:38:03;;;;;;;11.90;7.00;;;;;;;1.95;83.01;101636.81;5000742;28;20644;-72
2021/11/11 00:40:31;;;;;;;10.70;6.80;;;;;;;1.92;82.88;101627.19;5002347;28;20211;-73
2021/11/11 00:42:58;;;;;;;9.20;6.90;;;;;;;1.89;83.60;101632.47;5002702;28;20245;-72
2021/11/11 00:45:26;;;;;;;11.37;6.90;;;;;;;1.88;83.27;101640.38;5007002;28;20206;-72
2021/11/11 00:47:54;;;;;;;11.43;7.70;;;;;;;1.87;83.28;101643.91;5005379;28;20668;-75
2021/11/11 00:50:24;;;;;;;10.00;7.30;;;;;;;1.85;84.08;101641.28;5005840;28;20743;-71
2021/11/11 00:52:50;;;;;;;10.57;7.20;;;;;;;1.84;83.92;101642.16;5003856;28;20231;-72
2021/11/11 00:55:18;;;;;;;9.73;7.27;;;;;;;1.83;84.10;101643.06;5006030;28;20203;-71
2021/11/11 00:57:45;;;;;;;10.17;6.93;;;;;;;1.82;83.85;101638.69;5002091;28;20384;-71
2021/11/11 01:00:14;;;;;;;9.63;7.17;;;;;;;1.80;83.53;101632.56;5001729;28;21286;-70
2021/11/11 01:02:44;;;;;;;8.57;6.53;;;;;;;1.78;83.87;101629.13;5000502;28;20222;-71
2021/11/11 01:05:12;;;;;;;9.37;6.10;;;;;;;1.77;84.07;101629.16;5006230;28;20313;-70
2021/11/11 01:07:39;;;;;;;8.40;6.90;;;;;;;1.76;83.92;101627.41;5005476;28;20203;-73
2021/11/11 01:10:07;;;;;;;10.47;6.73;;;;;;;1.73;84.24;101625.69;4999988;28;20200;-71
2021/11/11 01:12:34;;;;;;;8.83;6.43;;;;;;;1.70;84.11;101621.31;5003723;28;20223;-72
2021/11/11 01:15:01;;;;;;;9.77;6.53;;;;;;;1.68;83.79;101614.34;5005728;28;20211;-71
2021/11/11 01:17:27;;;;;;;8.80;5.80;;;;;;;1.66;84.10;101613.50;5000382;28;20207;-71
2021/11/11 01:19:54;;;;;;;8.83;6.57;;;;;;;1.63;83.85;101617.00;5001411;28;20206;-72
2021/11/11 01:22:22;;;;;;;10.23;6.60;;;;;;;1.60;83.85;101601.31;5001802;28;20738;-72
2021/11/11 01:24:49;;;;;;;9.23;6.63;;;;;;;1.58;83.78;101616.22;5000893;28;20579;-71
2021/11/11 01:27:15;;;;;;;9.67;7.07;;;;;;;1.56;83.55;101627.63;5000077;28;20214;-71
2021/11/11 01:29:42;;;;;;;9.17;7.03;;;;;;;1.54;84.15;101624.13;4998844;28;20211;-71
2021/11/11 01:32:09;;;;;;;8.87;6.87;;;;;;;1.51;84.61;101609.28;4998768;28;20234;-72
2021/11/11 01:34:35;;;;;;;9.20;6.33;;;;;;;1.51;84.31;101619.78;4999816;28;20194;-70
2021/11/11 01:37:02;;;;;;;8.93;6.77;;;;;;;1.51;84.38;101618.91;4999511;28;20222;-71
2021/11/11 01:39:30;;;;;;;10.57;6.30;;;;;;;1.51;83.94;101616.28;4999975;28;20207;-72
2021/11/11 01:41:57;;;;;;;10.93;7.63;;;;;;;1.49;84.61;101615.44;4998834;28;20211;-73
2021/11/11 01:44:24;;;;;;;9.70;6.97;;;;;;;1.50;84.27;101606.69;5009118;28;20235;-72
2021/11/11 01:46:51;;;;;;;10.30;6.33;;;;;;;1.48;84.58;101604.06;5006172;28;20555;-72
2021/11/11 01:49:17;;;;;;;12.10;7.73;;;;;;;1.48;85.10;101605.81;5010378;28;20199;-72
2021/11/11 01:51:46;;;;;;;10.87;6.90;;;;;;;1.47;84.94;101606.69;5008843;28;20723;-71
2021/11/11 01:54:14;;;;;;;10.53;6.97;;;;;;;1.47;84.57;101596.22;5010746;28;20227;-72
2021/11/11 01:56:42;;;;;;;9.13;6.87;;;;;;;1.46;84.67;101595.34;5002655;28;20202;-72
2021/11/11 01:59:09;;;;;;;11.03;6.57;;;;;;;1.43;84.46;101582.28;5008166;28;20207;-72
2021/11/11 02:01:35;;;;;;;9.67;6.60;;;;;;;1.42;84.83;101584.91;5004363;28;20211;-71
2021/11/11 02:04:02;;;;;;;10.97;6.90;;;;;;;1.39;84.62;101581.44;5004064;28;20245;-71
2021/11/11 02:06:29;;;;;;;11.57;6.63;;;;;;;1.38;85.08;101576.19;4994867;28;20615;-72
2021/11/11 02:08:56;;;;;;;9.43;7.10;;;;;;;1.36;85.19;101578.84;5008643;28;20210;-71
2021/11/11 02:11:23;;;;;;;9.23;6.63;;;;;;;1.34;85.48;101580.59;5006832;28;20222;-71
2021/11/11 02:13:51;;;;;;;9.03;6.73;;;;;;;1.32;84.94;101577.13;5005749;28;20272;-73
2021/11/11 02:16:17;;;;;;;10.43;6.00;;;;;;;1.30;84.70;101573.63;5014723;28;20207;-73
2021/11/11 02:18:44;;;;;;;9.17;6.03;;;;;;;1.28;85.32;101575.41;5012641;28;20213;-71
2021/11/11 02:21:13;;;;;;;10.83;6.30;;;;;;;1.26;85.23;101586.78;5005422;28;20209;-72
2021/11/11 02:23:41;;;;;;;9.97;6.63;;;;;;;1.24;85.22;101581.59;5010898;28;20270;-73
2021/11/11 02:26:08;;;;;;;9.53;6.77;;;;;;;1.23;85.31;101585.09;5033053;28;20217;-70
2021/11/11 02:28:36;;;;;;;9.30;6.07;;;;;;;1.21;85.54;101579.00;5016648;28;20239;-72
2021/11/11 02:31:03;;;;;;;9.43;6.83;;;;;;;1.21;85.38;101578.13;5009519;28;20560;-73
2021/11/11 02:33:29;;;;;;;9.53;6.10;;;;;;;1.18;85.38;101581.66;5018369;28;20227;-70
2021/11/11 02:35:56;;;;;;;11.30;6.90;;;;;;;1.17;85.66;101572.03;5012619;28;20211;-71
2021/11/11 02:38:24;;;;;;;11.27;6.80;;;;;;;1.17;85.66;101576.41;5012398;28;20210;-72
2021/11/11 02:40:51;;;;;;;10.47;6.97;;;;;;;1.15;85.31;101568.56;5006505;28;20221;-72
2021/11/11 02:43:19;;;;;;;12.43;7.07;;;;;;;1.14;85.53;101566.81;5002942;28;20239;-71
2021/11/11 02:45:49;;;;;;;9.27;6.50;;;;;;;1.14;85.92;101573.81;5006465;28;20207;-71
2021/11/11 02:48:19;;;;;;;8.93;6.33;;;;;;;1.12;85.62;101571.19;5003050;28;20302;-72
2021/11/11 02:50:47;;;;;;;10.80;6.20;;;;;;;1.10;85.21;101580.84;5008754;28;20207;-72
2021/11/11 02:53:14;;;;;;;12.33;6.70;;;;;;;1.09;85.23;101579.09;5006597;28;20234;-75
2021/11/11 02:55:42;;;;;;;7.90;5.73;;;;;;;1.08;85.45;101576.47;5012872;28;20229;-71
2021/11/11 02:58:10;;;;;;;10.17;6.63;;;;;;;1.05;85.70;101582.66;5007849;28;20210;-72
2021/11/11 03:00:45;;;;;;;10.67;6.57;;;;;;;1.04;85.65;101589.66;5020604;28;20222;-71
2021/11/11 03:03:12;;;;;;;15.00;7.10;;;;;;;1.03;85.54;101579.19;5024848;28;20593;-72
2021/11/11 03:05:40;;;;;;;10.97;7.03;;;;;;;1.00;85.56;101590.56;5010843;28;20230;-74
2021/11/11 03:08:07;;;;;;;14.67;7.57;;;;;;;0.99;85.80;101599.31;5006540;28;20242;-72
2021/11/11 03:10:37;;;;;;;11.67;7.27;;;;;;;0.99;85.77;101593.19;5011764;28;20740;-73
2021/11/11 03:13:05;;;;;;;11.23;7.57;;;;;;;0.97;85.64;101594.97;5012565;28;20250;-72
2021/11/11 03:15:34;;;;;;;11.57;7.57;;;;;;;0.96;85.71;101599.34;5012676;28;20199;-73
2021/11/11 03:18:01;;;;;;;10.10;7.10;;;;;;;0.94;85.54;101603.72;5010056;28;20206;-72
2021/11/11 03:20:28;;;;;;;8.67;6.40;;;;;;;0.90;85.50;101603.75;5012318;28;20213;-72
2021/11/11 03:22:55;;;;;;;9.07;6.70;;;;;;;0.87;85.67;101611.66;5017468;28;20709;-73
2021/11/11 03:25:24;;;;;;;9.90;7.27;;;;;;;0.84;85.99;101612.56;5009791;28;20530;-72
2021/11/11 03:27:52;;;;;;;10.53;6.90;;;;;;;0.83;85.94;101617.81;5010479;28;20685;-72
2021/11/11 03:30:22;;;;;;;11.87;6.97;;;;;;;0.82;85.62;101619.56;5016178;28;20203;-74
2021/11/11 03:32:49;;;;;;;10.40;6.57;;;;;;;0.82;86.05;101616.06;5011313;28;20235;-72
2021/11/11 03:35:17;;;;;;;9.43;7.30;;;;;;;0.82;86.01;101616.94;5013961;28;20298;-72
2021/11/11 03:37:45;;;;;;;10.70;7.40;;;;;;;0.82;86.15;101616.06;5009714;28;20195;-73
2021/11/11 03:40:15;;;;;;;12.10;7.30;;;;;;;0.83;86.14;101607.31;5019414;28;20213;-74
2021/11/11 03:42:45;;;;;;;11.37;8.17;;;;;;;0.86;86.34;101623.03;4994201;22;1062048;-70
2021/11/11 03:45:11;;;;;;;13.13;8.03;;;;;;;0.87;86.56;101619.53;5020998;28;20226;-71
2021/11/11 03:47:40;;;;;;;15.70;8.47;;;;;;;0.89;86.81;101620.41;5017222;28;20210;-70
2021/11/11 03:50:08;;;;;;;15.50;8.20;;;;;;;0.90;86.86;101619.50;5012756;28;20203;-70
2021/11/11 03:52:34;;;;;;;12.30;8.73;;;;;;;0.93;86.88;101624.72;5012492;28;20641;-70
2021/11/11 03:55:01;;;;;;;13.73;7.80;;;;;;;0.97;87.27;101623.81;5010116;28;20234;-71
2021/11/11 03:57:28;;;;;;;14.17;8.40;;;;;;;0.99;87.41;101622.91;5022309;28;20213;-71
2021/11/11 03:59:56;;;;;;;15.87;9.50;;;;;;;1.03;87.50;101631.63;5011560;28;20203;-71
2021/11/11 04:02:24;;;;;;;14.50;9.13;;;;;;;1.06;87.86;101621.13;5003904;28;20196;-70
2021/11/11 04:04:52;;;;;;;14.13;8.10;;;;;;;1.09;87.92;101620.19;5010087;28;20280;-70
2021/11/11 04:07:18;;;;;;;15.10;8.93;;;;;;;1.13;87.94;101622.78;5000474;28;20226;-71
2021/11/11 04:09:45;;;;;;;16.90;9.20;;;;;;;1.16;88.06;101622.75;5007416;28;20213;-71
2021/11/11 04:12:12;;;;;;;11.10;8.00;;;;;;;1.19;88.15;101630.63;5008524;28;20230;-70
2021/11/11 04:14:39;;;;;;;10.90;7.80;;;;;;;1.21;87.98;101634.09;5007685;28;20230;-69
2021/11/11 04:17:06;;;;;;;11.50;8.30;;;;;;;1.24;88.19;101620.09;4993839;28;20677;-71
2021/11/11 04:19:32;;;;;;;10.83;8.27;;;;;;;1.26;88.31;101619.16;4999289;28;20606;-71
2021/11/11 04:22:00;;;;;;;12.23;8.30;;;;;;;1.30;88.64;101620.88;4994060;28;20203;-70
2021/11/11 04:24:27;;;;;;;11.73;7.50;;;;;;;1.35;88.93;101626.09;5008421;28;20227;-70
2021/11/11 04:26:57;;;;;;;12.93;8.37;;;;;;;1.37;88.69;101619.06;4996747;28;20222;-70
2021/11/11 04:29:25;;;;;;;11.73;8.23;;;;;;;1.39;88.74;101626.03;5007610;28;20209;-70
2021/11/11 04:31:55;;;;;;;11.77;7.30;;;;;;;1.44;88.84;101617.22;5008828;28;20238;-71
2021/11/11 04:34:22;;;;;;;12.93;8.43;;;;;;;1.47;88.70;101619.84;4992320;28;20325;-70
2021/11/11 04:42:40;;;;;;;11.87;8.37;;;;;;;1.53;89.31;101607.53;5002822;28;20222;-70
2021/11/11 04:45:36;;;;;;;14.77;8.60;;;;;;;1.56;89.48;101610.13;4995538;28;20218;-71
2021/11/11 04:48:25;;;;;;;12.90;8.33;;;;;;;1.61;89.12;101615.31;5005153;28;20218;-70
2021/11/11 04:51:12;;;;;;;15.20;9.27;;;;;;;1.62;89.18;101614.41;5008355;28;20264;-70
2021/11/11 05:01:55;;;;;;;14.87;8.80;;;;;;;1.77;89.65;101622.13;4997106;28;20211;-71
2021/11/11 05:04:22;;;;;;;13.17;9.53;;;;;;;1.81;90.40;101621.19;5005873;28;20229;-71
2021/11/11 05:06:49;;;;;;;14.30;9.97;;;;;;;1.85;90.35;101625.53;5003412;28;20257;-71
2021/11/11 05:09:15;;;;;;;14.67;10.23;;;;;;;1.88;90.21;101625.50;4998727;28;20266;-71
2021/11/11 05:11:43;;;;;;;14.27;9.33;;;;;;;1.93;90.31;101625.44;5002436;28;20669;-70
2021/11/11 05:14:10;;;;;;;14.50;9.80;;;;;;;1.98;90.95;101613.09;5004464;28;20227;-71
2021/11/11 05:16:37;;;;;;;17.63;10.17;;;;;;;2.01;90.04;101621.81;4995580;28;20212;-70
2021/11/11 05:19:03;;;;;;;18.20;10.17;;;;;;;2.05;90.75;101622.66;5008486;28;20681;-70
2021/11/11 05:21:30;;;;;;;15.73;10.33;;;;;;;2.09;91.15;101613.84;5004702;28;20217;-70
2021/11/11 05:23:56;;;;;;;15.93;9.70;;;;;;;2.13;90.47;101625.19;5008446;28;20245;-71
2021/11/11 05:26:24;;;;;;;23.33;11.17;;;;;;;2.16;91.17;101625.13;5013876;28;20664;-70
2021/11/11 05:28:52;;;;;;;16.87;10.27;;;;;;;2.20;91.02;101625.06;5012821;28;20218;-71
2021/11/11 05:31:19;;;;;;;18.60;10.00;;;;;;;2.25;90.83;101622.38;5014185;28;20549;-70
2021/11/11 05:33:45;;;;;;;15.33;9.57;;;;;;;2.29;91.44;101621.47;5014239;28;20230;-71
2021/11/11 05:36:12;;;;;;;13.20;9.47;;;;;;;2.32;90.80;101626.69;5008485;28;20203;-71
2021/11/11 05:38:39;;;;;;;16.30;10.37;;;;;;;2.34;91.26;101620.50;5002891;28;20587;-70
2021/11/11 05:41:06;;;;;;;16.90;10.53;;;;;;;2.37;90.98;101614.31;5003159;28;20199;-70
2021/11/11 05:43:32;;;;;;;22.20;10.90;;;;;;;2.40;91.54;101614.28;4997636;28;20246;-70
2021/11/11 05:46:00;;;;;;;15.20;10.30;;;;;;;2.42;91.23;101602.88;5001420;28;20202;-69
2021/11/11 05:48:27;;;;;;;14.27;8.53;;;;;;;2.44;91.70;101597.59;4999972;28;20207;-70
2021/11/11 05:50:54;;;;;;;14.50;9.67;;;;;;;2.47;90.88;101592.28;5007242;28;20207;-69
2021/11/11 05:53:20;;;;;;;19.07;10.17;;;;;;;2.50;91.80;101599.25;5003761;28;20230;-69
2021/11/11 05:55:48;;;;;;;13.03;9.33;;;;;;;2.52;90.83;101593.06;5003858;28;20208;-70
2021/11/11 05:58:14;;;;;;;16.33;10.43;;;;;;;2.55;90.88;101590.38;5005330;28;20203;-70
2021/11/11 06:00:41;;;;;;;21.70;10.90;;;;;;;2.56;91.39;101584.25;5006897;28;20222;-70
2021/11/11 06:03:09;;;;;;;15.93;10.70;;;;;;;2.60;91.50;101585.06;5003291;28;20225;-69
2021/11/11 06:05:35;;;;;;;18.47;11.33;;;;;;;2.65;91.72;101592.00;5006220;28;20210;-70
2021/11/11 06:08:02;;;;;;;19.43;11.00;;;;;;;2.68;91.33;101594.59;5002284;28;20210;-70
2021/11/11 06:10:29;;;;;;;16.67;10.67;;;;;;;2.73;91.22;101598.00;5005463;28;20214;-70
2021/11/11 06:12:55;;;;;;;19.13;11.73;;;;;;;2.77;92.21;101596.19;5007727;28;20653;-71
2021/11/11 06:15:22;;;;;;;19.03;11.63;;;;;;;2.81;92.29;101604.91;5010618;28;20574;-71
2021/11/11 06:17:53;;;;;;;22.03;12.33;;;;;;;2.84;91.46;101615.38;5004965;28;20583;-69
2021/11/11 06:20:27;;;;;;;20.50;12.67;;;;;;;2.88;91.58;101623.19;5007577;28;20213;-70
2021/11/11 06:22:54;;;;;;;17.80;11.67;;;;;;;2.91;92.04;101623.13;5008919;28;20234;-70
2021/11/11 06:25:21;;;;;;;18.53;11.50;;;;;;;2.94;92.56;101625.72;5011043;28;20207;-70
2021/11/11 06:27:47;;;;;;;18.13;10.73;;;;;;;2.96;91.87;101621.31;5010179;28;20707;-70
2021/11/11 06:30:14;;;;;;;14.90;10.60;;;;;;;2.98;92.39;101631.81;5003176;28;20290;-68
2021/11/11 06:32:40;;;;;;;20.03;10.67;;;;;;;2.99;92.11;101626.53;5012983;28;20728;-70
2021/11/11 06:35:08;;;;;;;16.00;11.23;;;;;;;3.02;92.29;101630.88;4999982;28;20692;-74
2021/11/11 06:37:37;;;;;;;16.23;10.80;;;;;;;3.04;92.73;101629.94;5006760;28;20215;-74
2021/11/11 06:40:04;;;;;;;19.43;11.17;;;;;;;3.07;92.07;101639.53;5006392;28;20211;-74
2021/11/11 06:42:33;;;;;;;20.53;11.90;;;;;;;3.10;92.82;101647.38;4999336;28;20203;-74
2021/11/11 06:44:59;;;;;;;17.03;11.43;;;;;;;3.14;92.33;101651.72;4996426;28;20239;-75
2021/11/11 06:47:26;;;;;;;18.73;10.47;;;;;;;3.18;92.70;101663.94;5012430;28;20218;-74
2021/11/11 06:49:52;;;;;;;19.10;10.13;;;;;;;3.21;92.49;101669.16;5011013;28;20203;-73
2021/11/11 06:52:19;;;;;;;17.60;10.27;;;;;;;3.24;92.93;101674.34;5011403;28;20206;-75
2021/11/11 06:54:47;;;;;;;14.73;10.63;;;;;;;3.27;93.21;101671.66;5010814;28;20222;-74
2021/11/11 06:57:16;;;;;;;22.00;11.87;;;;;;;3.31;92.97;101672.47;5012123;28;20218;-74
2021/11/11 06:59:42;;;;;;;18.80;13.00;;;;;;;3.32;93.23;101674.22;5006610;28;20211;-75
2021/11/11 07:02:09;;;;;;;18.00;11.50;;;;;;;3.37;93.42;101672.38;5005150;28;20222;-75
2021/11/11 07:04:35;;;;;;;16.77;11.20;;;;;;;3.40;92.70;101677.59;5006320;28;20704;-74
2021/11/11 07:07:02;;;;;;;19.93;11.37;;;;;;;3.43;92.61;101669.63;5001146;28;20215;-74
2021/11/11 07:09:29;;;;;;;17.80;11.57;;;;;;;3.46;92.78;101674.84;5009439;28;20229;-75
2021/11/11 07:11:57;;;;;;;18.03;11.03;;;;;;;3.49;93.11;101666.88;5006481;28;20230;-75
2021/11/11 07:14:24;;;;;;;15.53;11.33;;;;;;;3.53;93.32;101675.63;5011460;28;20227;-75
2021/11/11 07:16:52;;;;;;;18.83;13.07;;;;;;;3.57;93.14;101670.28;5000078;28;20592;-75
2021/11/11 07:19:18;;;;;;;19.43;11.23;;;;;;;3.61;93.27;101669.28;5009657;28;20640;-75
2021/11/11 07:21:45;;;;;;;20.23;11.63;;;;;;;3.65;93.08;101676.25;4996346;28;20234;-74
2021/11/11 07:24:11;;;;;;;18.23;11.50;;;;;;;3.69;92.81;101677.94;5000436;28;20237;-74
2021/11/11 07:26:38;;;;;;;19.07;11.63;;;;;;;3.73;93.04;101678.75;5000908;28;20693;-75
2021/11/11 07:29:06;;;;;;;19.27;11.27;;;;;;;3.76;93.12;101674.28;4995757;28;20199;-75
2021/11/11 07:31:32;;;;;;;15.60;10.73;;;;;;;3.79;92.73;101674.22;4998381;28;20215;-75
2021/11/11 07:33:59;;;;;;;19.67;11.43;;;;;;;3.83;92.80;101677.66;5001086;28;20240;-75
2021/11/11 07:36:26;;;;;;;16.93;11.03;;;;;;;3.86;92.75;101666.19;5006064;28;20199;-73
2021/11/11 07:38:53;;;;;;;21.40;11.37;;;;;;;3.89;92.59;101664.38;5008127;28;20203;-74
2021/11/11 07:41:19;;;;;;;19.17;11.97;;;;;;;3.93;92.79;101665.19;4996800;28;20211;-76
2021/11/11 07:43:46;;;;;;;19.50;12.07;;;;;;;3.97;93.10;101678.25;4999464;28;20234;-75
2021/11/11 07:46:14;;;;;;;19.97;11.47;;;;;;;4.01;93.31;101673.81;4999297;28;20592;-76
2021/11/11 07:48:41;;;;;;;18.33;12.17;;;;;;;4.05;93.11;101678.13;4999570;28;20620;-75
2021/11/11 07:51:07;;;;;;;24.20;13.83;;;;;;;4.08;92.71;101684.22;5000276;28;20203;-73
2021/11/11 07:53:34;;;;;;;20.47;13.70;;;;;;;4.13;92.79;101677.06;4999820;28;20683;-74
2021/11/11 07:56:00;;;;;;;19.53;13.20;;;;;;;4.18;92.92;101676.97;5002224;28;20214;-74
2021/11/11 07:58:27;;;;;;;20.70;12.37;;;;;;;4.23;93.36;101679.50;4999070;28;20222;-74
2021/11/11 08:00:54;;;;;;;21.80;14.40;;;;;;;4.28;92.69;101672.38;5004893;28;20560;-73
2021/11/11 08:03:22;;;;;;;24.63;14.20;;;;;;;4.33;92.77;101675.78;5008820;28;20268;-75
2021/11/11 08:05:48;;;;;;;25.87;14.20;;;;;;;4.38;92.72;101685.34;5002980;28;20290;-74
2021/11/11 08:08:15;;;;;;;20.80;13.70;;;;;;;4.42;92.61;101684.38;4998732;28;20204;-75
2021/11/11 08:10:42;;;;;;;22.40;13.93;;;;;;;4.48;92.83;101693.91;5000568;28;20208;-74
2021/11/11 08:13:08;;;;;;;24.47;13.47;;;;;;;4.51;93.08;101685.91;4998894;28;20607;-76
2021/11/11 08:15:35;;;;;;;19.07;13.23;;;;;;;4.55;92.88;101682.31;5004868;28;20207;-75
2021/11/11 08:18:03;;;;;;;17.23;12.03;;;;;;;4.61;93.10;101687.47;5003197;28;20203;-75
2021/11/11 08:20:31;;;;;;;19.93;12.50;;;;;;;4.66;92.92;101690.03;4999763;28;20219;-73
2021/11/11 08:22:57;;;;;;;18.00;12.17;;;;;;;4.69;92.63;101692.56;4998429;28;20230;-74
2021/11/11 08:25:24;;;;;;;17.30;12.10;;;;;;;4.72;92.84;101684.59;4999520;28;20215;-74
2021/11/11 08:27:51;;;;;;;20.73;12.80;;;;;;;4.76;92.58;101675.69;5006737;28;20211;-74
2021/11/11 08:30:19;;;;;;;19.13;12.87;;;;;;;4.80;92.89;101686.16;5003665;28;20294;-75
2021/11/11 08:32:49;;;;;;;20.37;13.23;;;;;;;4.84;92.38;101681.66;4999304;28;20299;-74
2021/11/11 08:35:16;;;;;;;20.87;13.07;;;;;;;4.88;92.55;101684.19;5003633;28;20577;-73
2021/11/11 08:37:46;;;;;;;18.57;12.93;;;;;;;4.92;92.73;101684.13;4996891;28;20294;-74
2021/11/11 08:40:15;;;;;;;21.23;12.40;;;;;;;4.97;92.28;101693.69;5008922;28;20207;-73
2021/11/11 08:42:42;;;;;;;20.07;12.67;;;;;;;5.00;92.51;101693.63;5005998;28;20203;-74
2021/11/11 08:45:10;;;;;;;16.73;12.40;;;;;;;5.05;92.08;101694.34;5007016;28;20579;-74
2021/11/11 08:47:37;;;;;;;19.47;13.33;;;;;;;5.08;92.10;101691.63;5008233;28;20580;-75
2021/11/11 08:50:04;;;;;;;20.37;11.73;;;;;;;5.12;92.38;101684.53;5014347;28;20215;-75
2021/11/11 08:52:30;;;;;;;17.60;12.03;;;;;;;5.17;92.37;101677.38;5002859;28;20217;-76
2021/11/11 08:54:58;;;;;;;22.23;13.17;;;;;;;5.20;92.03;101672.84;5004926;28;20227;-74
2021/11/11 08:57:25;;;;;;;23.30;12.67;;;;;;;5.26;91.58;101682.41;5007890;28;20206;-75
2021/11/11 08:59:54;;;;;;;17.60;12.27;;;;;;;5.31;92.32;101683.16;5007133;28;20208;-74
2021/11/11 09:02:21;;;;;;;18.87;12.87;;;;;;;5.35;91.63;101686.59;5004800;28;20203;-75
2021/11/11 09:04:49;;;;;;;19.50;13.07;;;;;;;5.38;91.77;101682.09;5006461;28;20223;-75
2021/11/11 09:07:16;;;;;;;17.50;12.53;;;;;;;5.43;92.00;101676.69;5006309;28;20211;-76
2021/11/11 09:09:43;;;;;;;19.80;12.40;;;;;;;5.48;91.53;101683.59;5006109;28;20203;-74
2021/11/11 09:12:12;;;;;;;19.13;13.47;;;;;;;5.53;91.82;101684.34;4999680;28;20653;-73
2021/11/11 09:14:38;;;;;;;20.57;12.60;;;;;;;5.57;91.66;101688.63;5002628;28;20243;-75
2021/11/11 09:17:05;;;;;;;20.03;12.47;;;;;;;5.62;91.26;101688.50;5000974;28;20202;-74
2021/11/11 09:19:33;;;;;;;16.03;12.40;;;;;;;5.66;91.42;101686.66;5004151;28;20444;-73
2021/11/11 09:22:00;;;;;;;19.07;12.67;;;;;;;5.70;91.36;101685.69;5008075;28;20206;-77
2021/11/11 09:24:27;;;;;;;18.67;13.00;;;;;;;5.73;91.20;101682.97;5006800;28;20227;-75
2021/11/11 09:26:53;;;;;;;21.23;12.73;;;;;;;5.77;91.36;101690.75;5003748;28;20680;-73
2021/11/11 09:29:22;;;;;;;20.90;12.47;;;;;;;5.82;91.35;101687.97;5006337;28;20590;-74
2021/11/11 09:31:49;;;;;;;20.50;12.77;;;;;;;5.88;91.15;101693.13;5008893;28;20211;-74
2021/11/11 09:34:15;;;;;;;20.20;13.70;;;;;;;5.96;91.83;101682.34;5001516;28;20231;-73
2021/11/11 09:36:42;;;;;;;20.30;13.37;;;;;;;6.03;91.86;101683.91;5006334;28;20207;-75
2021/11/11 09:39:08;;;;;;;21.37;12.50;;;;;;;6.11;91.83;101681.91;5000198;28;20218;-74
2021/11/11 09:41:39;;;;;;;20.30;12.87;;;;;;;6.19;92.13;101680.78;5000566;28;20845;-72
2021/11/11 09:44:06;;;;;;;15.43;11.33;;;;;;;6.27;92.21;101685.84;5000722;28;20262;-74
2021/11/11 09:46:34;;;;;;;17.47;12.07;;;;;;;6.34;91.67;101682.13;5005566;28;20207;-74
2021/11/11 09:49:01;;;;;;;16.57;11.20;;;;;;;6.39;91.82;101687.28;5005985;28;20680;-74
2021/11/11 09:51:28;;;;;;;14.97;10.77;;;;;;;6.45;92.03;101695.06;5001616;28;20212;-74
2021/11/11 09:54:04;;;;;;;13.47;9.50;;;;;;;6.49;92.05;101697.53;5006376;28;20265;-74
2021/11/11 09:59:16;;;;;;;11.33;8.17;;;;;;;6.62;91.88;101682.19;5007413;28;20718;-73
2021/11/11 10:01:45;;;;;;;11.10;7.93;;;;;;;6.68;91.96;101684.63;5001996;28;20224;-74
2021/11/11 10:04:12;;;;;;;12.57;8.00;;;;;;;6.74;91.51;101684.44;5005097;28;20214;-74
2021/11/11 10:06:39;;;;;;;14.73;9.33;;;;;;;6.79;91.64;101674.56;5008640;28;20217;-74
2021/11/11 10:09:13;;;;;;;13.27;8.07;;;;;;;6.88;91.13;101676.91;5002262;28;20205;-74
2021/11/11 10:11:49;;;;;;;10.30;7.60;;;;;;;6.94;91.83;101683.81;5002243;28;20243;-74
2021/11/11 10:14:18;;;;;;;11.70;7.23;;;;;;;7.01;91.33;101681.81;5006296;28;20679;-75
2021/11/11 10:16:49;;;;;;;10.97;7.80;;;;;;;7.08;90.74;101676.28;5005447;28;20215;-74
2021/11/11 10:19:17;;;;;;;10.20;6.73;;;;;;;7.13;91.19;101677.00;5002686;28;20207;-74
2021/11/11 10:21:45;;;;;;;8.50;6.53;;;;;;;7.20;91.09;101675.88;5001318;28;20215;-73
2021/11/11 10:24:17;;;;;;;8.23;5.70;;;;;;;7.26;90.91;101682.75;5003797;28;20646;-74
2021/11/11 10:26:52;;;;;;;7.90;5.30;;;;;;;7.30;90.41;101682.63;5000249;28;20203;-73
2021/11/11 10:29:21;;;;;;;9.03;6.60;;;;;;;7.34;90.17;101682.53;5000391;28;20202;-74
2021/11/11 10:31:53;;;;;;;6.80;5.40;;;;;;;7.37;90.15;101677.97;5004340;28;20200;-74
2021/11/11 10:34:20;;;;;;;9.03;5.77;;;;;;;7.41;90.25;101679.59;5001393;28;20708;-74
2021/11/11 10:36:49;;;;;;;6.87;5.10;;;;;;;7.46;89.69;101672.34;5003353;28;20203;-73
2021/11/11 10:39:18;;;;;;;8.33;5.17;;;;;;;7.49;89.49;101666.09;5006852;28;20218;-75
2021/11/11 10:41:46;;;;;;;7.10;5.27;;;;;;;7.54;89.23;101669.44;5002588;28;20676;-74
2021/11/11 10:44:22;;;;;;;7.00;4.90;;;;;;;7.58;88.92;101669.28;5004199;28;20728;-74
2021/11/11 10:46:57;;;;;;;7.27;5.30;;;;;;;7.63;89.48;101663.81;5001397;28;20207;-73
2021/11/11 10:49:30;;;;;;;6.07;4.97;;;;;;;7.69;88.59;101662.75;4998462;28;20390;-73
2021/11/11 10:52:26;;;;;;;6.50;4.17;;;;;;;7.73;89.13;101651.97;5004410;28;20203;-74
2021/11/11 10:54:58;;;;;;;5.57;4.17;;;;;;;7.75;88.24;101649.25;5000576;28;20643;-74
2021/11/11 10:57:32;;;;;;;6.00;4.10;;;;;;;7.78;88.60;101650.03;4998819;28;20202;-74
2021/11/11 11:00:22;;;;;;;4.57;4.07;;;;;;;7.81;88.17;101649.91;4995164;28;20222;-73
2021/11/11 11:03:00;;;;;;;5.47;3.90;;;;;;;7.86;88.14;101655.06;4985094;28;20219;-74
2021/11/11 11:05:31;;;;;;;8.63;5.80;;;;;;;7.88;87.21;101646.09;4996163;28;20207;-73
2021/11/11 11:08:00;;;;;;;6.57;5.13;;;;;;;7.90;87.84;101652.22;5003318;28;20203;-73
2021/11/11 11:10:28;;;;;;;4.63;3.60;;;;;;;7.90;87.08;101649.56;4998315;28;20223;-74
2021/11/11 11:12:55;;;;;;;5.43;3.90;;;;;;;7.91;87.64;101646.00;5002829;28;20499;-73
2021/11/11 11:15:57;;;;;;;6.27;4.23;;;;;;;7.93;87.50;101649.47;5006400;28;20249;-74
2021/11/11 11:18:29;;;;;;;7.00;5.90;;;;;;;7.94;87.21;101652.97;4947098;29;20205;-72
2021/11/11 11:20:59;;;;;;;4.83;4.07;;;;;;;7.94;86.16;101648.53;4942529;29;20723;-72
2021/11/11 11:23:29;;;;;;;5.63;3.83;;;;;;;7.97;86.48;101652.88;4971629;28;20227;-72
2021/11/11 11:26:18;;;;;;;5.37;4.20;;;;;;;8.00;85.89;101647.47;5001657;28;20620;-72
2021/11/11 11:29:02;;;;;;;4.83;4.07;;;;;;;8.01;86.42;101646.53;4998610;28;20200;-72
2021/11/11 11:31:33;;;;;;;4.37;3.97;;;;;;;8.03;86.00;101652.66;5008820;28;20663;-75
2021/11/11 11:34:06;;;;;;;5.20;4.33;;;;;;;8.05;85.96;101647.28;5007125;28;20696;-73
2021/11/11 11:36:40;;;;;;;5.70;4.77;;;;;;;8.05;85.36;101648.16;5011219;28;20206;-75
2021/11/11 11:39:09;;;;;;;5.27;3.83;;;;;;;8.06;85.02;101649.88;5007130;28;20222;-73
2021/11/11 11:41:38;;;;;;;6.40;3.90;;;;;;;8.07;84.97;101646.28;5002971;28;20214;-73
2021/11/11 11:44:25;;;;;;;23.17;14.33;;;;;;;8.08;84.32;101648.03;4995103;28;20327;-76
2021/11/11 11:46:56;;;;;;;20.40;13.03;;;;;;;8.10;84.88;101647.97;5011045;28;20218;-74